sensor_id;sensor_type;location;lat;lon;timestamp;P1;durP1;ratioP1;P2;durP2;ratioP2
42364;SDS011;28498;54.400;18.566;2023-02-15T00:01:33;13.75;;;7.47;;
42364;SDS011;28498;54.400;18.566;2023-02-15T00:04:02;12.93;;;7.68;;
42364;SDS011;28498;54.400;18.566;2023-02-15T00:06:30;17.75;;;8.75;;
42364;SDS011;28498;54.400;18.566;2023-02-15T00:08:57;16.30;;;8.82;;
42364;SDS011;28498;54.400;18.566;2023-02-15T00:11:25;15.13;;;8.38;;
42364;SDS011;28498;54.400;18.566;2023-02-15T00:14:08;12.90;;;7.68;;
42364;SDS011;28498;54.400;18.566;2023-02-15T00:16:35;12.30;;;7.57;;
42364;SDS011;28498;54.400;18.566;2023-02-15T00:19:03;12.10;;;7.65;;
42364;SDS011;28498;54.400;18.566;2023-02-15T00:21:31;11.60;;;7.50;;
42364;SDS011;28498;54.400;18.566;2023-02-15T00:23:59;11.90;;;8.02;;
42364;SDS011;28498;54.400;18.566;2023-02-15T00:26:27;12.43;;;7.50;;
42364;SDS011;28498;54.400;18.566;2023-02-15T00:28:55;11.98;;;7.53;;
42364;SDS011;28498;54.400;18.566;2023-02-15T00:31:25;12.90;;;7.25;;
42364;SDS011;28498;54.400;18.566;2023-02-15T00:34:16;11.27;;;7.50;;
42364;SDS011;28498;54.400;18.566;2023-02-15T00:36:44;15.93;;;7.97;;
42364;SDS011;28498;54.400;18.566;2023-02-15T00:39:12;13.13;;;7.03;;
42364;SDS011;28498;54.400;18.566;2023-02-15T00:41:40;13.95;;;8.55;;
42364;SDS011;28498;54.400;18.566;2023-02-15T00:44:08;16.40;;;8.63;;
42364;SDS011;28498;54.400;18.566;2023-02-15T00:46:35;13.80;;;8.18;;
42364;SDS011;28498;54.400;18.566;2023-02-15T00:49:02;16.30;;;9.98;;
42364;SDS011;28498;54.400;18.566;2023-02-15T00:51:30;18.08;;;9.60;;
42364;SDS011;28498;54.400;18.566;2023-02-15T00:53:58;16.23;;;9.88;;
42364;SDS011;28498;54.400;18.566;2023-02-15T00:56:25;17.95;;;9.93;;
42364;SDS011;28498;54.400;18.566;2023-02-15T00:58:54;18.60;;;10.43;;
42364;SDS011;28498;54.400;18.566;2023-02-15T01:01:22;17.70;;;9.27;;
42364;SDS011;28498;54.400;18.566;2023-02-15T01:03:49;22.00;;;10.10;;
42364;SDS011;28498;54.400;18.566;2023-02-15T01:06:16;16.42;;;9.73;;
42364;SDS011;28498;54.400;18.566;2023-02-15T01:08:45;18.40;;;9.40;;
42364;SDS011;28498;54.400;18.566;2023-02-15T01:11:13;18.10;;;9.48;;
42364;SDS011;28498;54.400;18.566;2023-02-15T01:13:49;18.88;;;10.13;;
42364;SDS011;28498;54.400;18.566;2023-02-15T01:16:17;19.73;;;10.25;;
42364;SDS011;28498;54.400;18.566;2023-02-15T01:18:44;16.02;;;9.95;;
42364;SDS011;28498;54.400;18.566;2023-02-15T01:21:13;17.67;;;9.80;;
42364;SDS011;28498;54.400;18.566;2023-02-15T01:23:42;18.27;;;10.82;;
42364;SDS011;28498;54.400;18.566;2023-02-15T01:26:09;18.08;;;9.95;;
42364;SDS011;28498;54.400;18.566;2023-02-15T01:28:36;18.75;;;10.65;;
42364;SDS011;28498;54.400;18.566;2023-02-15T01:31:04;16.38;;;10.20;;
42364;SDS011;28498;54.400;18.566;2023-02-15T01:33:35;18.80;;;10.40;;
42364;SDS011;28498;54.400;18.566;2023-02-15T01:36:03;23.05;;;11.73;;
42364;SDS011;28498;54.400;18.566;2023-02-15T01:38:30;22.13;;;11.55;;
42364;SDS011;28498;54.400;18.566;2023-02-15T01:40:58;19.10;;;10.38;;
42364;SDS011;28498;54.400;18.566;2023-02-15T01:43:46;19.58;;;9.93;;
42364;SDS011;28498;54.400;18.566;2023-02-15T01:46:16;16.33;;;10.35;;
42364;SDS011;28498;54.400;18.566;2023-02-15T01:48:47;18.83;;;11.10;;
42364;SDS011;28498;54.400;18.566;2023-02-15T01:51:18;19.05;;;10.85;;
42364;SDS011;28498;54.400;18.566;2023-02-15T01:53:50;23.13;;;11.38;;
42364;SDS011;28498;54.400;18.566;2023-02-15T01:56:26;22.42;;;12.48;;
42364;SDS011;28498;54.400;18.566;2023-02-15T01:58:57;21.25;;;11.82;;
42364;SDS011;28498;54.400;18.566;2023-02-15T02:01:28;23.15;;;11.65;;
42364;SDS011;28498;54.400;18.566;2023-02-15T02:04:05;22.33;;;12.00;;
42364;SDS011;28498;54.400;18.566;2023-02-15T02:06:39;21.42;;;13.02;;
42364;SDS011;28498;54.400;18.566;2023-02-15T02:09:06;22.08;;;12.38;;
42364;SDS011;28498;54.400;18.566;2023-02-15T02:11:33;21.45;;;11.75;;
42364;SDS011;28498;54.400;18.566;2023-02-15T02:14:01;23.73;;;12.48;;
42364;SDS011;28498;54.400;18.566;2023-02-15T02:22:13;20.38;;;11.02;;
42364;SDS011;28498;54.400;18.566;2023-02-15T02:36:06;19.63;;;11.15;;
42364;SDS011;28498;54.400;18.566;2023-02-15T02:41:32;20.73;;;11.82;;
42364;SDS011;28498;54.400;18.566;2023-02-15T02:44:24;19.67;;;11.90;;
42364;SDS011;28498;54.400;18.566;2023-02-15T02:47:02;22.15;;;12.55;;
42364;SDS011;28498;54.400;18.566;2023-02-15T02:50:03;19.20;;;10.52;;
42364;SDS011;28498;54.400;18.566;2023-02-15T02:52:38;26.10;;;12.32;;
42364;SDS011;28498;54.400;18.566;2023-02-15T02:57:45;24.13;;;12.35;;
42364;SDS011;28498;54.400;18.566;2023-02-15T03:00:20;20.55;;;12.48;;
42364;SDS011;28498;54.400;18.566;2023-02-15T03:02:50;26.35;;;12.50;;
42364;SDS011;28498;54.400;18.566;2023-02-15T03:05:25;27.83;;;13.70;;
42364;SDS011;28498;54.400;18.566;2023-02-15T03:07:55;24.52;;;12.70;;
42364;SDS011;28498;54.400;18.566;2023-02-15T03:10:23;26.30;;;12.93;;
42364;SDS011;28498;54.400;18.566;2023-02-15T03:12:51;27.00;;;13.95;;
42364;SDS011;28498;54.400;18.566;2023-02-15T03:15:20;26.52;;;13.82;;
42364;SDS011;28498;54.400;18.566;2023-02-15T03:18:18;26.83;;;12.80;;
42364;SDS011;28498;54.400;18.566;2023-02-15T03:20:49;27.60;;;13.02;;
42364;SDS011;28498;54.400;18.566;2023-02-15T03:23:20;23.25;;;12.63;;
42364;SDS011;28498;54.400;18.566;2023-02-15T03:25:52;26.80;;;14.45;;
42364;SDS011;28498;54.400;18.566;2023-02-15T03:28:35;29.55;;;13.90;;
42364;SDS011;28498;54.400;18.566;2023-02-15T03:31:07;29.98;;;14.25;;
42364;SDS011;28498;54.400;18.566;2023-02-15T03:33:37;25.33;;;14.23;;
42364;SDS011;28498;54.400;18.566;2023-02-15T03:39:20;22.55;;;12.43;;
42364;SDS011;28498;54.400;18.566;2023-02-15T03:47:04;23.67;;;12.07;;
42364;SDS011;28498;54.400;18.566;2023-02-15T03:49:57;23.02;;;12.23;;
42364;SDS011;28498;54.400;18.566;2023-02-15T03:52:58;23.73;;;12.50;;
42364;SDS011;28498;54.400;18.566;2023-02-15T03:55:28;27.20;;;13.32;;
42364;SDS011;28498;54.400;18.566;2023-02-15T03:57:55;22.25;;;12.05;;
42364;SDS011;28498;54.400;18.566;2023-02-15T04:00:43;21.02;;;12.15;;
42364;SDS011;28498;54.400;18.566;2023-02-15T04:06:23;23.42;;;12.20;;
42364;SDS011;28498;54.400;18.566;2023-02-15T04:08:50;24.85;;;12.55;;
42364;SDS011;28498;54.400;18.566;2023-02-15T04:11:35;29.23;;;12.82;;
42364;SDS011;28498;54.400;18.566;2023-02-15T04:14:02;21.50;;;11.82;;
42364;SDS011;28498;54.400;18.566;2023-02-15T04:16:49;23.40;;;12.35;;
42364;SDS011;28498;54.400;18.566;2023-02-15T04:19:16;20.13;;;11.88;;
42364;SDS011;28498;54.400;18.566;2023-02-15T04:22:01;23.48;;;11.77;;
42364;SDS011;28498;54.400;18.566;2023-02-15T04:24:47;21.90;;;12.45;;
42364;SDS011;28498;54.400;18.566;2023-02-15T04:27:33;18.45;;;11.10;;
42364;SDS011;28498;54.400;18.566;2023-02-15T04:30:00;24.13;;;12.40;;
42364;SDS011;28498;54.400;18.566;2023-02-15T04:32:27;22.90;;;11.82;;
42364;SDS011;28498;54.400;18.566;2023-02-15T04:34:54;24.38;;;12.30;;
42364;SDS011;28498;54.400;18.566;2023-02-15T04:37:21;22.27;;;11.25;;
42364;SDS011;28498;54.400;18.566;2023-02-15T04:39:48;22.27;;;12.02;;
42364;SDS011;28498;54.400;18.566;2023-02-15T04:42:16;22.73;;;11.90;;
42364;SDS011;28498;54.400;18.566;2023-02-15T04:44:43;21.65;;;12.05;;
42364;SDS011;28498;54.400;18.566;2023-02-15T04:47:10;18.70;;;11.70;;
42364;SDS011;28498;54.400;18.566;2023-02-15T04:49:37;22.65;;;11.73;;
42364;SDS011;28498;54.400;18.566;2023-02-15T04:52:04;20.33;;;10.52;;
42364;SDS011;28498;54.400;18.566;2023-02-15T04:54:31;22.27;;;11.07;;
42364;SDS011;28498;54.400;18.566;2023-02-15T04:56:58;20.58;;;10.52;;
42364;SDS011;28498;54.400;18.566;2023-02-15T04:59:25;16.60;;;9.40;;
42364;SDS011;28498;54.400;18.566;2023-02-15T05:01:52;21.10;;;11.60;;
42364;SDS011;28498;54.400;18.566;2023-02-15T05:04:19;19.83;;;11.18;;
42364;SDS011;28498;54.400;18.566;2023-02-15T05:06:46;20.55;;;10.65;;
42364;SDS011;28498;54.400;18.566;2023-02-15T05:09:13;19.30;;;10.10;;
42364;SDS011;28498;54.400;18.566;2023-02-15T05:11:40;22.25;;;10.18;;
42364;SDS011;28498;54.400;18.566;2023-02-15T05:14:07;17.13;;;9.43;;
42364;SDS011;28498;54.400;18.566;2023-02-15T05:16:35;18.23;;;9.32;;
42364;SDS011;28498;54.400;18.566;2023-02-15T05:19:02;17.92;;;9.65;;
42364;SDS011;28498;54.400;18.566;2023-02-15T05:21:29;19.80;;;11.13;;
42364;SDS011;28498;54.400;18.566;2023-02-15T05:23:56;19.77;;;10.60;;
42364;SDS011;28498;54.400;18.566;2023-02-15T05:26:23;15.52;;;9.23;;
42364;SDS011;28498;54.400;18.566;2023-02-15T05:29:09;19.58;;;10.45;;
42364;SDS011;28498;54.400;18.566;2023-02-15T05:31:37;19.17;;;11.07;;
42364;SDS011;28498;54.400;18.566;2023-02-15T05:34:05;17.08;;;9.50;;
42364;SDS011;28498;54.400;18.566;2023-02-15T05:36:32;19.05;;;9.90;;
42364;SDS011;28498;54.400;18.566;2023-02-15T05:38:58;19.60;;;10.18;;
42364;SDS011;28498;54.400;18.566;2023-02-15T05:41:25;18.75;;;9.23;;
42364;SDS011;28498;54.400;18.566;2023-02-15T05:43:54;20.27;;;10.52;;
42364;SDS011;28498;54.400;18.566;2023-02-15T05:46:22;19.55;;;10.48;;
42364;SDS011;28498;54.400;18.566;2023-02-15T05:48:49;20.02;;;9.60;;
42364;SDS011;28498;54.400;18.566;2023-02-15T05:51:16;18.20;;;10.02;;
42364;SDS011;28498;54.400;18.566;2023-02-15T05:53:43;20.02;;;10.15;;
42364;SDS011;28498;54.400;18.566;2023-02-15T05:56:10;17.15;;;9.82;;
42364;SDS011;28498;54.400;18.566;2023-02-15T05:58:39;20.38;;;10.15;;
42364;SDS011;28498;54.400;18.566;2023-02-15T06:01:10;23.33;;;11.30;;
42364;SDS011;28498;54.400;18.566;2023-02-15T06:03:39;18.80;;;10.48;;
42364;SDS011;28498;54.400;18.566;2023-02-15T06:06:07;25.33;;;13.93;;
42364;SDS011;28498;54.400;18.566;2023-02-15T06:08:35;26.23;;;13.93;;
42364;SDS011;28498;54.400;18.566;2023-02-15T06:11:03;28.95;;;14.50;;
42364;SDS011;28498;54.400;18.566;2023-02-15T06:13:31;23.77;;;13.18;;
42364;SDS011;28498;54.400;18.566;2023-02-15T06:16:02;27.10;;;14.32;;
42364;SDS011;28498;54.400;18.566;2023-02-15T06:18:30;25.10;;;14.70;;
42364;SDS011;28498;54.400;18.566;2023-02-15T06:20:57;22.63;;;11.73;;
42364;SDS011;28498;54.400;18.566;2023-02-15T06:23:24;20.70;;;12.70;;
42364;SDS011;28498;54.400;18.566;2023-02-15T06:25:51;22.08;;;12.23;;
42364;SDS011;28498;54.400;18.566;2023-02-15T06:28:18;25.25;;;10.90;;
42364;SDS011;28498;54.400;18.566;2023-02-15T06:30:44;21.90;;;12.07;;
42364;SDS011;28498;54.400;18.566;2023-02-15T06:33:12;19.63;;;10.50;;
42364;SDS011;28498;54.400;18.566;2023-02-15T06:35:39;21.17;;;11.13;;
42364;SDS011;28498;54.400;18.566;2023-02-15T06:38:06;20.40;;;11.20;;
42364;SDS011;28498;54.400;18.566;2023-02-15T06:40:33;21.42;;;11.10;;
42364;SDS011;28498;54.400;18.566;2023-02-15T06:43:00;20.52;;;12.48;;
42364;SDS011;28498;54.400;18.566;2023-02-15T06:45:27;24.63;;;11.75;;
42364;SDS011;28498;54.400;18.566;2023-02-15T06:47:54;21.42;;;11.50;;
42364;SDS011;28498;54.400;18.566;2023-02-15T06:50:21;21.58;;;12.15;;
42364;SDS011;28498;54.400;18.566;2023-02-15T06:52:48;28.95;;;12.45;;
42364;SDS011;28498;54.400;18.566;2023-02-15T06:55:15;22.10;;;12.65;;
42364;SDS011;28498;54.400;18.566;2023-02-15T06:57:42;21.15;;;11.73;;
42364;SDS011;28498;54.400;18.566;2023-02-15T07:00:09;20.55;;;11.65;;
42364;SDS011;28498;54.400;18.566;2023-02-15T07:02:36;21.52;;;11.05;;
42364;SDS011;28498;54.400;18.566;2023-02-15T07:05:03;22.85;;;11.10;;
42364;SDS011;28498;54.400;18.566;2023-02-15T07:07:31;18.23;;;10.93;;
42364;SDS011;28498;54.400;18.566;2023-02-15T07:09:58;21.92;;;11.10;;
42364;SDS011;28498;54.400;18.566;2023-02-15T07:12:25;17.05;;;11.20;;
42364;SDS011;28498;54.400;18.566;2023-02-15T07:15:11;22.15;;;10.98;;
42364;SDS011;28498;54.400;18.566;2023-02-15T07:17:42;22.10;;;11.23;;
42364;SDS011;28498;54.400;18.566;2023-02-15T07:20:11;24.48;;;11.50;;
42364;SDS011;28498;54.400;18.566;2023-02-15T07:22:43;22.35;;;11.60;;
42364;SDS011;28498;54.400;18.566;2023-02-15T07:25:10;23.73;;;11.27;;
42364;SDS011;28498;54.400;18.566;2023-02-15T07:27:38;20.40;;;12.23;;
42364;SDS011;28498;54.400;18.566;2023-02-15T07:30:06;22.13;;;12.23;;
42364;SDS011;28498;54.400;18.566;2023-02-15T07:32:35;19.05;;;11.13;;
42364;SDS011;28498;54.400;18.566;2023-02-15T07:35:02;24.25;;;12.38;;
42364;SDS011;28498;54.400;18.566;2023-02-15T07:37:29;19.75;;;10.57;;
42364;SDS011;28498;54.400;18.566;2023-02-15T07:39:56;19.73;;;11.50;;
42364;SDS011;28498;54.400;18.566;2023-02-15T07:42:23;20.33;;;10.90;;
42364;SDS011;28498;54.400;18.566;2023-02-15T07:44:50;20.38;;;10.95;;
42364;SDS011;28498;54.400;18.566;2023-02-15T07:47:18;20.42;;;10.93;;
42364;SDS011;28498;54.400;18.566;2023-02-15T07:49:45;19.60;;;11.20;;
42364;SDS011;28498;54.400;18.566;2023-02-15T07:52:12;23.40;;;10.07;;
42364;SDS011;28498;54.400;18.566;2023-02-15T07:54:39;20.90;;;10.82;;
42364;SDS011;28498;54.400;18.566;2023-02-15T07:57:06;21.38;;;10.77;;
42364;SDS011;28498;54.400;18.566;2023-02-15T07:59:33;18.15;;;10.55;;
42364;SDS011;28498;54.400;18.566;2023-02-15T08:02:00;20.77;;;12.40;;
42364;SDS011;28498;54.400;18.566;2023-02-15T08:04:27;17.10;;;10.70;;
42364;SDS011;28498;54.400;18.566;2023-02-15T08:06:54;16.15;;;9.75;;
42364;SDS011;28498;54.400;18.566;2023-02-15T08:09:21;15.98;;;9.55;;
42364;SDS011;28498;54.400;18.566;2023-02-15T08:11:48;19.92;;;10.32;;
42364;SDS011;28498;54.400;18.566;2023-02-15T08:14:16;21.35;;;10.13;;
42364;SDS011;28498;54.400;18.566;2023-02-15T08:16:51;18.30;;;9.77;;
42364;SDS011;28498;54.400;18.566;2023-02-15T08:22:02;19.48;;;8.68;;
42364;SDS011;28498;54.400;18.566;2023-02-15T08:24:31;16.73;;;10.25;;
42364;SDS011;28498;54.400;18.566;2023-02-15T08:27:00;15.75;;;9.52;;
42364;SDS011;28498;54.400;18.566;2023-02-15T08:29:31;18.65;;;10.45;;
42364;SDS011;28498;54.400;18.566;2023-02-15T08:32:01;18.52;;;9.57;;
42364;SDS011;28498;54.400;18.566;2023-02-15T08:34:32;18.40;;;10.02;;
42364;SDS011;28498;54.400;18.566;2023-02-15T08:37:00;20.38;;;10.38;;
42364;SDS011;28498;54.400;18.566;2023-02-15T08:39:27;23.23;;;10.55;;
42364;SDS011;28498;54.400;18.566;2023-02-15T08:41:55;20.13;;;10.90;;
42364;SDS011;28498;54.400;18.566;2023-02-15T08:44:22;17.35;;;10.27;;
42364;SDS011;28498;54.400;18.566;2023-02-15T08:46:49;18.05;;;10.52;;
42364;SDS011;28498;54.400;18.566;2023-02-15T08:49:20;19.50;;;10.25;;
42364;SDS011;28498;54.400;18.566;2023-02-15T08:51:48;17.70;;;10.63;;
42364;SDS011;28498;54.400;18.566;2023-02-15T08:54:17;20.58;;;11.35;;
42364;SDS011;28498;54.400;18.566;2023-02-15T08:56:46;20.40;;;10.07;;
42364;SDS011;28498;54.400;18.566;2023-02-15T08:59:15;18.05;;;10.00;;
42364;SDS011;28498;54.400;18.566;2023-02-15T09:01:47;18.90;;;10.40;;
42364;SDS011;28498;54.400;18.566;2023-02-15T09:04:16;19.58;;;10.75;;
42364;SDS011;28498;54.400;18.566;2023-02-15T09:06:44;20.95;;;11.10;;
42364;SDS011;28498;54.400;18.566;2023-02-15T09:09:14;22.10;;;13.45;;
42364;SDS011;28498;54.400;18.566;2023-02-15T09:11:43;20.50;;;11.80;;
42364;SDS011;28498;54.400;18.566;2023-02-15T09:14:21;19.92;;;11.02;;
42364;SDS011;28498;54.400;18.566;2023-02-15T09:16:49;17.92;;;10.38;;
42364;SDS011;28498;54.400;18.566;2023-02-15T09:19:19;21.67;;;11.77;;
42364;SDS011;28498;54.400;18.566;2023-02-15T09:21:47;21.90;;;11.30;;
42364;SDS011;28498;54.400;18.566;2023-02-15T09:24:15;18.00;;;10.45;;
42364;SDS011;28498;54.400;18.566;2023-02-15T09:26:44;20.40;;;10.98;;
42364;SDS011;28498;54.400;18.566;2023-02-15T09:29:13;20.42;;;9.80;;
42364;SDS011;28498;54.400;18.566;2023-02-15T09:31:41;21.88;;;11.70;;
42364;SDS011;28498;54.400;18.566;2023-02-15T09:34:14;18.23;;;10.38;;
42364;SDS011;28498;54.400;18.566;2023-02-15T09:36:44;21.95;;;11.30;;
42364;SDS011;28498;54.400;18.566;2023-02-15T09:39:12;23.35;;;11.25;;
42364;SDS011;28498;54.400;18.566;2023-02-15T09:53:26;22.60;;;11.82;;
42364;SDS011;28498;54.400;18.566;2023-02-15T09:55:51;18.17;;;10.50;;
42364;SDS011;28498;54.400;18.566;2023-02-15T10:20:49;22.42;;;12.00;;
42364;SDS011;28498;54.400;18.566;2023-02-15T10:25:58;21.33;;;12.43;;
42364;SDS011;28498;54.400;18.566;2023-02-15T10:28:31;20.13;;;12.07;;
42364;SDS011;28498;54.400;18.566;2023-02-15T10:31:35;20.40;;;11.23;;
42364;SDS011;28498;54.400;18.566;2023-02-15T10:42:44;23.23;;;12.50;;
42364;SDS011;28498;54.400;18.566;2023-02-15T10:45:39;22.65;;;11.32;;
42364;SDS011;28498;54.400;18.566;2023-02-15T11:02:00;22.65;;;12.48;;
42364;SDS011;28498;54.400;18.566;2023-02-15T11:04:51;23.33;;;13.43;;
42364;SDS011;28498;54.400;18.566;2023-02-15T11:07:27;22.83;;;12.55;;
42364;SDS011;28498;54.400;18.566;2023-02-15T11:12:59;30.33;;;14.35;;
42364;SDS011;28498;54.400;18.566;2023-02-15T11:15:42;20.87;;;13.27;;
42364;SDS011;28498;54.400;18.566;2023-02-15T11:21:31;26.52;;;14.18;;
42364;SDS011;28498;54.400;18.566;2023-02-15T11:24:09;24.48;;;12.93;;
42364;SDS011;28498;54.400;18.566;2023-02-15T11:26:45;23.02;;;13.65;;
42364;SDS011;28498;54.400;18.566;2023-02-15T11:29:31;24.20;;;13.68;;
42364;SDS011;28498;54.400;18.566;2023-02-15T11:34:58;26.65;;;13.38;;
42364;SDS011;28498;54.400;18.566;2023-02-15T11:43:11;23.58;;;13.55;;
42364;SDS011;28498;54.400;18.566;2023-02-15T11:45:44;25.90;;;13.93;;
42364;SDS011;28498;54.400;18.566;2023-02-15T11:48:13;21.10;;;12.65;;
42364;SDS011;28498;54.400;18.566;2023-02-15T11:50:41;26.02;;;13.93;;
42364;SDS011;28498;54.400;18.566;2023-02-15T11:53:17;23.38;;;13.65;;
42364;SDS011;28498;54.400;18.566;2023-02-15T11:55:48;24.17;;;14.18;;
42364;SDS011;28498;54.400;18.566;2023-02-15T11:58:25;28.70;;;13.85;;
42364;SDS011;28498;54.400;18.566;2023-02-15T12:06:42;25.15;;;14.15;;
42364;SDS011;28498;54.400;18.566;2023-02-15T12:11:48;25.40;;;14.90;;
42364;SDS011;28498;54.400;18.566;2023-02-15T12:14:15;27.10;;;15.65;;
42364;SDS011;28498;54.400;18.566;2023-02-15T12:16:44;24.63;;;15.48;;
42364;SDS011;28498;54.400;18.566;2023-02-15T12:22:11;26.67;;;15.18;;
42364;SDS011;28498;54.400;18.566;2023-02-15T12:24:56;25.63;;;14.45;;
42364;SDS011;28498;54.400;18.566;2023-02-15T12:27:33;31.88;;;15.27;;
42364;SDS011;28498;54.400;18.566;2023-02-15T12:30:04;26.10;;;15.65;;
42364;SDS011;28498;54.400;18.566;2023-02-15T12:35:27;27.13;;;15.82;;
42364;SDS011;28498;54.400;18.566;2023-02-15T12:37:57;26.25;;;15.13;;
42364;SDS011;28498;54.400;18.566;2023-02-15T12:40:31;24.98;;;15.50;;
42364;SDS011;28498;54.400;18.566;2023-02-15T12:43:00;26.88;;;15.23;;
42364;SDS011;28498;54.400;18.566;2023-02-15T12:48:09;29.92;;;15.32;;
42364;SDS011;28498;54.400;18.566;2023-02-15T12:50:36;37.03;;;16.30;;
42364;SDS011;28498;54.400;18.566;2023-02-15T12:55:34;23.48;;;14.80;;
42364;SDS011;28498;54.400;18.566;2023-02-15T12:58:08;26.42;;;14.98;;
42364;SDS011;28498;54.400;18.566;2023-02-15T13:00:46;27.45;;;15.35;;
42364;SDS011;28498;54.400;18.566;2023-02-15T13:03:17;26.00;;;14.55;;
42364;SDS011;28498;54.400;18.566;2023-02-15T13:05:49;28.55;;;15.93;;
42364;SDS011;28498;54.400;18.566;2023-02-15T13:08:30;28.65;;;17.27;;
42364;SDS011;28498;54.400;18.566;2023-02-15T13:11:09;27.00;;;16.05;;
42364;SDS011;28498;54.400;18.566;2023-02-15T13:13:45;27.33;;;15.60;;
42364;SDS011;28498;54.400;18.566;2023-02-15T13:16:20;24.50;;;14.68;;
42364;SDS011;28498;54.400;18.566;2023-02-15T13:19:08;22.58;;;14.18;;
42364;SDS011;28498;54.400;18.566;2023-02-15T13:21:39;27.42;;;14.82;;
42364;SDS011;28498;54.400;18.566;2023-02-15T13:24:28;25.02;;;13.98;;
42364;SDS011;28498;54.400;18.566;2023-02-15T13:26:59;24.42;;;14.63;;
42364;SDS011;28498;54.400;18.566;2023-02-15T13:29:42;22.50;;;12.48;;
42364;SDS011;28498;54.400;18.566;2023-02-15T13:32:22;24.75;;;14.68;;
42364;SDS011;28498;54.400;18.566;2023-02-15T13:35:00;27.67;;;14.35;;
42364;SDS011;28498;54.400;18.566;2023-02-15T13:40:15;28.90;;;14.75;;
42364;SDS011;28498;54.400;18.566;2023-02-15T13:42:47;22.80;;;13.57;;
42364;SDS011;28498;54.400;18.566;2023-02-15T13:48:19;23.17;;;13.27;;
42364;SDS011;28498;54.400;18.566;2023-02-15T14:11:02;22.98;;;12.75;;
42364;SDS011;28498;54.400;18.566;2023-02-15T14:22:12;22.85;;;13.90;;
42364;SDS011;28498;54.400;18.566;2023-02-15T14:30:44;31.33;;;15.18;;
42364;SDS011;28498;54.400;18.566;2023-02-15T14:36:03;28.45;;;14.80;;
42364;SDS011;28498;54.400;18.566;2023-02-15T14:43:52;32.55;;;17.75;;
42364;SDS011;28498;54.400;18.566;2023-02-15T14:56:44;25.13;;;14.93;;
42364;SDS011;28498;54.400;18.566;2023-02-15T14:59:18;31.65;;;16.30;;
42364;SDS011;28498;54.400;18.566;2023-02-15T15:01:51;27.55;;;15.98;;
42364;SDS011;28498;54.400;18.566;2023-02-15T15:04:24;36.53;;;18.42;;
42364;SDS011;28498;54.400;18.566;2023-02-15T15:10:32;29.80;;;17.13;;
42364;SDS011;28498;54.400;18.566;2023-02-15T15:12:44;31.08;;;16.35;;
42364;SDS011;28498;54.400;18.566;2023-02-15T15:17:55;32.67;;;17.83;;
42364;SDS011;28498;54.400;18.566;2023-02-15T15:20:39;36.33;;;16.60;;
42364;SDS011;28498;54.400;18.566;2023-02-15T15:25:51;34.90;;;19.13;;
42364;SDS011;28498;54.400;18.566;2023-02-15T15:29:07;38.60;;;17.92;;
42364;SDS011;28498;54.400;18.566;2023-02-15T15:45:25;39.80;;;21.05;;
42364;SDS011;28498;54.400;18.566;2023-02-15T15:50:33;41.08;;;20.10;;
42364;SDS011;28498;54.400;18.566;2023-02-15T15:53:02;41.75;;;22.45;;
42364;SDS011;28498;54.400;18.566;2023-02-15T15:55:30;47.00;;;23.92;;
42364;SDS011;28498;54.400;18.566;2023-02-15T15:58:01;46.72;;;24.58;;
42364;SDS011;28498;54.400;18.566;2023-02-15T16:00:50;46.92;;;23.95;;
42364;SDS011;28498;54.400;18.566;2023-02-15T16:03:25;41.67;;;21.15;;
42364;SDS011;28498;54.400;18.566;2023-02-15T16:05:53;53.75;;;24.50;;
42364;SDS011;28498;54.400;18.566;2023-02-15T16:08:32;52.78;;;24.38;;
42364;SDS011;28498;54.400;18.566;2023-02-15T16:11:08;52.38;;;23.90;;
42364;SDS011;28498;54.400;18.566;2023-02-15T16:13:57;54.22;;;25.30;;
42364;SDS011;28498;54.400;18.566;2023-02-15T16:16:27;44.25;;;23.13;;
42364;SDS011;28498;54.400;18.566;2023-02-15T16:18:55;45.20;;;22.90;;
42364;SDS011;28498;54.400;18.566;2023-02-15T16:21:30;46.22;;;23.00;;
42364;SDS011;28498;54.400;18.566;2023-02-15T16:29:51;50.15;;;24.27;;
42364;SDS011;28498;54.400;18.566;2023-02-15T16:32:22;52.28;;;27.25;;
42364;SDS011;28498;54.400;18.566;2023-02-15T16:37:19;59.45;;;27.00;;
42364;SDS011;28498;54.400;18.566;2023-02-15T16:39:49;51.95;;;26.45;;
42364;SDS011;28498;54.400;18.566;2023-02-15T16:42:17;50.13;;;25.30;;
42364;SDS011;28498;54.400;18.566;2023-02-15T16:44:45;51.70;;;24.30;;
42364;SDS011;28498;54.400;18.566;2023-02-15T16:47:17;50.60;;;25.02;;
42364;SDS011;28498;54.400;18.566;2023-02-15T16:49:52;52.78;;;25.13;;
42364;SDS011;28498;54.400;18.566;2023-02-15T16:52:24;50.47;;;24.75;;
42364;SDS011;28498;54.400;18.566;2023-02-15T16:55:00;53.20;;;24.92;;
42364;SDS011;28498;54.400;18.566;2023-02-15T16:57:35;56.53;;;26.00;;
42364;SDS011;28498;54.400;18.566;2023-02-15T17:00:05;53.17;;;25.42;;
42364;SDS011;28498;54.400;18.566;2023-02-15T17:02:34;58.85;;;27.20;;
42364;SDS011;28498;54.400;18.566;2023-02-15T17:05:21;53.45;;;26.50;;
42364;SDS011;28498;54.400;18.566;2023-02-15T17:10:39;52.53;;;25.90;;
42364;SDS011;28498;54.400;18.566;2023-02-15T17:13:15;54.55;;;24.65;;
42364;SDS011;28498;54.400;18.566;2023-02-15T17:15:44;57.25;;;26.73;;
42364;SDS011;28498;54.400;18.566;2023-02-15T17:18:31;60.50;;;28.63;;
42364;SDS011;28498;54.400;18.566;2023-02-15T17:21:08;59.25;;;28.00;;
42364;SDS011;28498;54.400;18.566;2023-02-15T17:23:42;58.03;;;28.20;;
42364;SDS011;28498;54.400;18.566;2023-02-15T17:26:12;61.15;;;29.98;;
42364;SDS011;28498;54.400;18.566;2023-02-15T17:31:34;61.88;;;28.35;;
42364;SDS011;28498;54.400;18.566;2023-02-15T17:34:01;58.88;;;28.10;;
42364;SDS011;28498;54.400;18.566;2023-02-15T17:36:29;60.67;;;30.25;;
42364;SDS011;28498;54.400;18.566;2023-02-15T17:41:28;63.80;;;28.50;;
42364;SDS011;28498;54.400;18.566;2023-02-15T17:44:01;68.53;;;31.90;;
42364;SDS011;28498;54.400;18.566;2023-02-15T17:46:34;66.40;;;31.50;;
42364;SDS011;28498;54.400;18.566;2023-02-15T17:49:03;62.38;;;31.15;;
42364;SDS011;28498;54.400;18.566;2023-02-15T17:51:30;71.07;;;31.70;;
42364;SDS011;28498;54.400;18.566;2023-02-15T17:54:01;68.55;;;33.05;;
42364;SDS011;28498;54.400;18.566;2023-02-15T17:57:08;68.68;;;32.17;;
42364;SDS011;28498;54.400;18.566;2023-02-15T18:02:23;68.55;;;30.45;;
42364;SDS011;28498;54.400;18.566;2023-02-15T18:05:12;71.80;;;30.60;;
42364;SDS011;28498;54.400;18.566;2023-02-15T18:07:58;65.13;;;32.42;;
42364;SDS011;28498;54.400;18.566;2023-02-15T18:10:44;68.88;;;32.00;;
42364;SDS011;28498;54.400;18.566;2023-02-15T18:13:30;65.95;;;30.90;;
42364;SDS011;28498;54.400;18.566;2023-02-15T18:15:57;66.20;;;32.15;;
42364;SDS011;28498;54.400;18.566;2023-02-15T18:18:25;69.90;;;34.05;;
42364;SDS011;28498;54.400;18.566;2023-02-15T18:20:53;70.25;;;32.10;;
42364;SDS011;28498;54.400;18.566;2023-02-15T18:23:20;73.03;;;32.65;;
42364;SDS011;28498;54.400;18.566;2023-02-15T18:25:47;75.07;;;34.03;;
42364;SDS011;28498;54.400;18.566;2023-02-15T18:28:14;82.00;;;37.67;;
42364;SDS011;28498;54.400;18.566;2023-02-15T18:30:41;80.47;;;33.95;;